Time;durP1;ratioP1;P1;durP2;ratioP2;P2;SDS_P1;SDS_P2;PMS_P1;PMS_P2;Temp;Humidity;BMP_temperature;BMP_pressure;BME280_temperature;BME280_humidity;BME280_pressure;Samples;Min_cycle;Max_cycle;Signal;HPM_P1;HPM_P2
2021/12/23 00:00:16;;;;;;;5.45;4.70;;;;;;;-5.17;93.05;61480.06;5046956;28;20193;-75
2021/12/23 00:02:43;;;;;;;8.32;5.82;;;;;;;-5.16;93.14;61476.63;5064475;28;20506;-75
2021/12/23 00:05:11;;;;;;;13.32;7.25;;;;;;;-5.06;92.03;61486.31;5063069;28;20213;-75
2021/12/23 00:07:38;;;;;;;8.23;5.82;;;;;;;-5.17;92.06;61470.13;5044092;28;20286;-75
2021/12/23 00:10:07;;;;;;;10.30;5.68;;;;;;;-5.21;92.16;61471.53;5055441;28;20213;-75
2021/12/23 00:12:36;;;;;;;11.10;7.38;;;;;;;-5.22;92.10;61468.03;5055914;28;20206;-75
2021/12/23 00:15:09;;;;;;;9.50;5.07;;;;;;;-5.23;92.22;61468.97;5050820;28;20471;-75
2021/12/23 00:17:56;;;;;;;15.18;6.30;;;;;;;-5.30;92.36;61457.41;5042387;28;20202;-75
2021/12/23 00:23:27;;;;;;;11.50;6.65;;;;;;;-5.40;92.80;61449.19;5052401;28;20613;-76
2021/12/23 00:25:58;;;;;;;8.43;5.90;;;;;;;-5.35;93.06;61456.75;5039309;28;20244;-75
2021/12/23 00:28:25;;;;;;;7.78;5.40;;;;;;;-5.34;92.69;61457.75;5057423;28;20201;-75
2021/12/23 00:30:54;;;;;;;6.90;5.03;;;;;;;-5.36;93.17;61460.69;5063889;28;20233;-75
2021/12/23 00:33:22;;;;;;;10.73;6.47;;;;;;;-5.41;92.52;61448.16;5056227;28;20220;-75
2021/12/23 00:35:49;;;;;;;8.38;4.95;;;;;;;-5.38;92.56;61453.69;5045471;28;20222;-75
2021/12/23 00:38:21;;;;;;;9.10;5.53;;;;;;;-5.39;92.20;61455.16;5059469;28;20428;-75
2021/12/23 00:40:48;;;;;;;10.80;5.70;;;;;;;-5.33;91.94;61459.28;5066120;28;20580;-75
2021/12/23 00:43:15;;;;;;;7.57;6.20;;;;;;;-5.32;91.17;61457.31;5054095;28;20241;-75
2021/12/23 00:45:42;;;;;;;10.65;6.72;;;;;;;-5.34;91.14;61455.78;5046431;28;20231;-75
2021/12/23 00:48:11;;;;;;;8.35;5.60;;;;;;;-5.44;90.58;61445.59;5056642;28;20391;-75
2021/12/23 00:50:38;;;;;;;5.78;4.05;;;;;;;-5.39;90.55;61447.72;5059652;28;20224;-75
2021/12/23 00:53:08;;;;;;;6.20;3.72;;;;;;;-5.34;89.81;61455.28;5042739;28;20202;-76
2021/12/23 00:55:35;;;;;;;8.10;3.95;;;;;;;-5.43;89.64;61446.63;5043946;28;20217;-76
2021/12/23 00:58:02;;;;;;;7.75;4.70;;;;;;;-5.43;89.46;61446.63;5063259;28;20205;-75
2021/12/23 01:00:29;;;;;;;6.15;4.05;;;;;;;-5.40;89.46;61454.13;5057250;28;20221;-74
2021/12/23 01:02:59;;;;;;;6.68;4.07;;;;;;;-5.46;89.39;61448.53;5046903;28;20236;-75
2021/12/23 01:05:28;;;;;;;4.35;3.40;;;;;;;-5.46;89.45;61448.00;5036992;28;20212;-75
2021/12/23 01:07:55;;;;;;;5.70;3.70;;;;;;;-5.54;89.29;61442.34;5063628;28;20210;-75
2021/12/23 01:10:24;;;;;;;4.18;2.97;;;;;;;-5.54;89.03;61435.41;5060727;28;20414;-75
2021/12/23 01:12:57;;;;;;;6.57;3.38;;;;;;;-5.57;89.13;61434.34;5048607;28;20380;-75
2021/12/23 01:15:58;;;;;;;3.63;3.28;;;;;;;-5.61;88.57;61428.28;5056919;28;20219;-75
2021/12/23 01:18:29;;;;;;;9.65;5.38;;;;;;;-5.63;88.11;61433.16;5067206;28;20212;-75
2021/12/23 01:21:15;;;;;;;5.10;3.20;;;;;;;-5.61;87.89;61430.75;5041392;28;20252;-74
2021/12/23 01:23:44;;;;;;;5.18;3.50;;;;;;;-5.59;87.44;61430.31;5052415;28;20266;-75
2021/12/23 01:26:12;;;;;;;3.40;2.83;;;;;;;-5.62;87.20;61426.75;5057043;28;20237;-75
2021/12/23 01:28:39;;;;;;;2.35;2.10;;;;;;;-5.71;86.80;61425.03;5064574;28;20209;-75
2021/12/23 01:31:06;;;;;;;1.85;1.75;;;;;;;-5.68;85.91;61421.16;5048834;28;20514;-75
2021/12/23 01:33:33;;;;;;;2.83;2.05;;;;;;;-5.66;84.83;61422.69;5064972;28;20444;-76
2021/12/23 01:36:01;;;;;;;2.83;2.25;;;;;;;-5.69;85.24;61427.06;5047077;28;20233;-75
2021/12/23 01:38:28;;;;;;;2.28;1.88;;;;;;;-5.76;84.93;61417.44;5053140;28;20209;-74
2021/12/23 01:40:55;;;;;;;1.75;1.65;;;;;;;-5.67;84.17;61421.66;5046309;28;20218;-74
2021/12/23 01:43:22;;;;;;;3.53;2.17;;;;;;;-5.59;82.55;61432.28;5055271;28;20232;-74
2021/12/23 01:45:50;;;;;;;3.28;1.77;;;;;;;-5.64;82.63;61432.16;5067133;28;20263;-74
2021/12/23 01:48:19;;;;;;;3.70;2.38;;;;;;;-5.86;82.98;61404.78;5050787;28;20248;-75
2021/12/23 01:50:46;;;;;;;1.90;1.80;;;;;;;-5.87;83.61;61406.78;5054889;28;20570;-75
2021/12/23 01:53:15;;;;;;;2.03;1.92;;;;;;;-5.97;84.29;61397.09;5061210;28;20207;-74
2021/12/23 01:55:43;;;;;;;2.88;2.67;;;;;;;-5.80;84.22;61416.38;5059403;28;20225;-75
2021/12/23 01:58:12;;;;;;;3.70;3.40;;;;;;;-5.81;84.18;61410.38;5053130;28;20529;-75
2021/12/23 02:00:43;;;;;;;2.17;1.95;;;;;;;-5.91;84.94;61402.69;5053772;28;20222;-74
2021/12/23 02:03:11;;;;;;;2.97;2.78;;;;;;;-5.99;85.18;61390.09;5068299;28;20263;-75
2021/12/23 02:05:38;;;;;;;3.40;2.90;;;;;;;-5.98;85.73;61386.16;5047869;28;20249;-74
2021/12/23 02:08:05;;;;;;;3.08;2.38;;;;;;;-6.07;86.49;61386.91;5051053;28;20207;-75
2021/12/23 02:10:33;;;;;;;2.88;2.58;;;;;;;-6.07;87.20;61379.47;5057215;28;20280;-75
2021/12/23 02:13:01;;;;;;;3.17;2.65;;;;;;;-6.05;87.11;61390.91;5075479;28;20519;-75
2021/12/23 02:15:28;;;;;;;3.47;2.03;;;;;;;-6.20;88.03;61373.66;5061221;28;20198;-75
2021/12/23 02:17:56;;;;;;;7.80;2.70;;;;;;;-6.24;88.30;61371.56;5055571;28;22764;-75
2021/12/23 02:20:26;;;;;;;2.17;2.08;;;;;;;-6.24;88.58;61364.63;5054494;28;20205;-75
2021/12/23 02:22:53;;;;;;;3.40;2.47;;;;;;;-6.19;87.15;61371.69;5053754;28;20229;-75
2021/12/23 02:25:20;;;;;;;4.43;2.70;;;;;;;-6.18;86.28;61378.16;5055117;28;20273;-76
2021/12/23 02:27:48;;;;;;;2.60;2.40;;;;;;;-6.19;86.12;61371.69;5050823;28;20206;-75
2021/12/23 02:30:17;;;;;;;2.30;2.10;;;;;;;-6.21;86.18;61372.63;5054832;28;20209;-76
2021/12/23 02:32:46;;;;;;;2.20;2.00;;;;;;;-6.21;86.50;61372.13;5055974;28;20425;-77
2021/12/23 02:35:15;;;;;;;2.80;2.60;;;;;;;-6.17;85.77;61373.72;5056858;28;20194;-76
2021/12/23 02:37:44;;;;;;;2.90;2.70;;;;;;;-6.12;85.57;61371.91;5058136;28;20503;-75
2021/12/23 02:40:23;;;;;;;5.40;2.47;;;;;;;-6.16;85.35;61375.25;5049616;28;20198;-75
2021/12/23 02:42:49;;;;;;;4.57;2.75;;;;;;;-6.25;85.97;61371.06;5057218;28;20544;-75
2021/12/23 02:45:16;;;;;;;3.15;2.70;;;;;;;-6.26;86.28;61367.03;5065611;28;20205;-75
2021/12/23 02:47:43;;;;;;;3.13;2.88;;;;;;;-6.19;86.59;61377.16;5065586;28;20237;-75
2021/12/23 02:50:10;;;;;;;3.90;2.88;;;;;;;-6.18;86.58;61372.72;5047515;28;20198;-75
2021/12/23 02:52:37;;;;;;;5.72;3.97;;;;;;;-6.21;86.76;61374.59;5053804;28;20205;-75
2021/12/23 02:55:06;;;;;;;6.25;3.72;;;;;;;-6.25;87.54;61368.59;5059443;28;20518;-75
2021/12/23 02:57:34;;;;;;;6.90;3.85;;;;;;;-6.23;87.75;61375.06;5059126;28;20276;-76
2021/12/23 03:00:02;;;;;;;4.93;3.92;;;;;;;-6.31;87.80;61364.94;5036460;28;20214;-76
2021/12/23 03:02:28;;;;;;;4.57;4.07;;;;;;;-6.28;87.99;61368.00;5064941;28;20241;-76
2021/12/23 03:04:55;;;;;;;6.60;4.35;;;;;;;-6.27;88.39;61361.06;5062428;28;20201;-75
2021/12/23 03:07:22;;;;;;;5.47;4.53;;;;;;;-6.22;89.17;61366.69;5065037;28;20217;-75
2021/12/23 03:09:49;;;;;;;5.05;3.20;;;;;;;-6.66;90.87;61321.38;5045233;28;20202;-76
2021/12/23 03:12:17;;;;;;;6.32;3.65;;;;;;;-6.71;91.86;61323.72;5053189;28;20232;-75
2021/12/23 03:14:44;;;;;;;3.85;3.25;;;;;;;-6.72;92.13;61320.72;5062494;28;20213;-75
2021/12/23 03:17:11;;;;;;;4.82;3.20;;;;;;;-6.67;91.98;61323.34;5061980;28;20267;-75
2021/12/23 03:19:38;;;;;;;4.95;4.10;;;;;;;-6.65;92.02;61322.38;5044876;28;20339;-76
2021/12/23 03:22:05;;;;;;;4.93;3.55;;;;;;;-6.59;91.83;61328.50;5043930;28;20222;-75
2021/12/23 03:24:32;;;;;;;6.35;3.75;;;;;;;-6.59;91.65;61336.44;5050555;28;20212;-74
2021/12/23 03:26:59;;;;;;;3.63;3.08;;;;;;;-6.58;91.39;61334.97;5049027;28;20244;-75
2021/12/23 03:29:27;;;;;;;4.53;3.45;;;;;;;-6.60;91.94;61328.00;5059973;28;20209;-76
2021/12/23 03:31:54;;;;;;;3.13;2.83;;;;;;;-6.51;91.25;61341.59;5052339;28;20221;-75
2021/12/23 03:34:21;;;;;;;4.85;2.80;;;;;;;-6.57;90.60;61336.00;5061439;28;20209;-75
2021/12/23 03:36:49;;;;;;;2.80;2.55;;;;;;;-6.58;90.17;61336.94;5054115;28;20782;-75
2021/12/23 03:39:16;;;;;;;3.47;2.83;;;;;;;-6.63;90.08;61326.91;5060453;28;20495;-75
2021/12/23 03:41:43;;;;;;;3.13;2.83;;;;;;;-6.58;89.45;61339.41;5046318;28;20225;-75
2021/12/23 03:44:10;;;;;;;4.28;2.85;;;;;;;-6.68;89.77;61326.75;5053235;28;20422;-75
2021/12/23 03:46:38;;;;;;;2.72;2.53;;;;;;;-6.65;89.85;61330.31;5051031;28;20222;-75
2021/12/23 03:49:06;;;;;;;2.53;2.33;;;;;;;-6.71;89.16;61321.25;5054624;28;20245;-74
2021/12/23 03:51:33;;;;;;;2.53;2.33;;;;;;;-6.60;88.32;61332.94;5051241;28;20395;-74
2021/12/23 03:54:00;;;;;;;3.70;2.92;;;;;;;-6.72;88.95;61323.19;5055062;28;20372;-76
2021/12/23 03:56:27;;;;;;;2.80;1.85;;;;;;;-6.85;90.22;61307.47;5056584;28;20225;-75
2021/12/23 03:58:54;;;;;;;3.10;2.67;;;;;;;-6.85;90.11;61302.53;5048436;28;20218;-74
2021/12/23 04:01:23;;;;;;;4.47;1.98;;;;;;;-6.83;89.94;61306.56;5046097;28;20285;-74
2021/12/23 04:03:52;;;;;;;2.65;1.85;;;;;;;-6.86;89.37;61304.00;5055516;28;20221;-74
2021/12/23 04:06:20;;;;;;;2.08;1.92;;;;;;;-6.81;88.66;61311.03;5062660;28;20232;-75
2021/12/23 04:08:47;;;;;;;4.00;2.58;;;;;;;-6.83;88.43;61312.00;5050754;28;20206;-75
2021/12/23 04:11:14;;;;;;;3.65;2.85;;;;;;;-6.78;88.82;61309.66;5064119;28;20232;-76
2021/12/23 04:13:40;;;;;;;9.70;4.13;;;;;;;-6.73;88.44;61322.16;5048238;28;20235;-75
2021/12/23 04:16:07;;;;;;;5.05;4.00;;;;;;;-6.78;88.48;61314.59;5056136;28;20218;-75
2021/12/23 04:18:34;;;;;;;5.65;4.30;;;;;;;-6.78;88.96;61312.13;5051466;28;20244;-75
2021/12/23 04:21:03;;;;;;;4.95;3.15;;;;;;;-6.76;88.83;61319.13;5041769;28;20232;-76
2021/12/23 04:23:32;;;;;;;2.63;2.33;;;;;;;-6.76;88.04;61314.16;5050271;28;20233;-76
2021/12/23 04:25:59;;;;;;;2.28;1.90;;;;;;;-6.77;87.77;61315.63;5050765;28;20272;-75
2021/12/23 04:28:27;;;;;;;2.33;2.13;;;;;;;-6.75;87.51;61322.63;5056839;28;20251;-75
2021/12/23 04:30:54;;;;;;;3.97;2.55;;;;;;;-6.95;87.10;61294.84;5050349;28;20242;-75
2021/12/23 04:33:23;;;;;;;2.83;2.50;;;;;;;-7.02;87.93;61287.72;5056836;28;20426;-75
2021/12/23 04:35:50;;;;;;;1.63;1.52;;;;;;;-6.90;87.86;61304.38;5041559;28;20225;-75
2021/12/23 04:38:18;;;;;;;1.88;1.75;;;;;;;-6.89;87.73;61305.38;5049391;28;20197;-75
2021/12/23 04:40:45;;;;;;;2.92;2.70;;;;;;;-6.81;87.98;61306.09;5048426;28;20398;-75
2021/12/23 04:43:12;;;;;;;2.50;1.92;;;;;;;-6.84;87.47;61308.00;5057855;28;20233;-76
2021/12/23 04:45:39;;;;;;;2.35;2.10;;;;;;;-6.85;87.85;61304.50;5050750;28;20247;-75
2021/12/23 04:48:06;;;;;;;3.25;2.60;;;;;;;-6.87;87.98;61307.44;5056502;28;20215;-75
2021/12/23 04:50:33;;;;;;;2.85;2.40;;;;;;;-6.97;88.50;61297.75;5058484;28;20225;-75
2021/12/23 04:53:00;;;;;;;2.90;2.03;;;;;;;-7.02;89.16;61287.22;5053022;28;20206;-75
2021/12/23 04:55:30;;;;;;;1.73;1.63;;;;;;;-7.01;89.24;61288.75;5043274;28;20380;-75
2021/12/23 04:57:57;;;;;;;2.85;2.17;;;;;;;-7.00;88.79;61289.22;5049571;28;20278;-75
2021/12/23 05:00:25;;;;;;;4.55;2.55;;;;;;;-6.98;89.34;61296.75;5061597;28;20227;-76
2021/12/23 05:02:52;;;;;;;2.88;2.40;;;;;;;-7.06;89.62;61286.13;5061192;28;20213;-74
2021/12/23 05:05:19;;;;;;;3.05;2.15;;;;;;;-7.06;89.83;61286.13;5043157;28;20244;-76
2021/12/23 05:07:48;;;;;;;2.70;2.25;;;;;;;-7.03;89.82;61291.66;5045875;28;20386;-74
2021/12/23 05:10:16;;;;;;;3.28;2.28;;;;;;;-7.06;89.80;61288.09;5062717;28;20514;-75
2021/12/23 05:12:46;;;;;;;2.08;1.95;;;;;;;-7.07;90.01;61287.06;5063440;28;20205;-75
2021/12/23 05:15:15;;;;;;;4.22;2.50;;;;;;;-7.10;90.07;61277.09;5043655;28;20479;-75
2021/12/23 05:17:42;;;;;;;3.63;2.88;;;;;;;-7.04;89.94;61288.16;5048354;28;20208;-75
2021/12/23 05:20:11;;;;;;;7.45;2.72;;;;;;;-7.01;90.26;61290.69;5055612;28;20660;-76
2021/12/23 05:22:39;;;;;;;5.03;2.47;;;;;;;-7.06;90.00;61286.13;5047785;28;20201;-76
2021/12/23 05:25:07;;;;;;;3.60;3.05;;;;;;;-7.06;90.11;61283.66;5040997;28;20251;-76
2021/12/23 05:27:35;;;;;;;2.08;1.95;;;;;;;-7.07;90.29;61284.59;5058277;28;20205;-77
2021/12/23 05:30:05;;;;;;;2.90;2.00;;;;;;;-7.05;90.03;61289.09;5063264;28;20209;-75
2021/12/23 05:32:31;;;;;;;2.10;2.00;;;;;;;-7.09;89.83;61280.09;5062709;28;20225;-76
2021/12/23 05:34:58;;;;;;;2.10;2.00;;;;;;;-7.08;89.20;61283.56;5041567;28;20206;-77
2021/12/23 05:37:25;;;;;;;2.42;2.33;;;;;;;-7.05;88.90;61286.63;5048793;28;20239;-75
2021/12/23 05:39:52;;;;;;;2.88;2.63;;;;;;;-7.12;89.18;61283.00;5063321;28;20223;-75
2021/12/23 05:42:19;;;;;;;2.78;2.42;;;;;;;-7.38;90.00;61251.09;5046292;28;20222;-76
2021/12/23 05:44:46;;;;;;;4.40;3.15;;;;;;;-7.25;90.32;61266.78;5047909;28;20632;-75
2021/12/23 05:47:15;;;;;;;2.72;2.42;;;;;;;-7.23;90.32;61271.31;5058730;28;20225;-76
2021/12/23 05:49:42;;;;;;;7.82;4.70;;;;;;;-7.19;90.33;61270.94;5057829;28;20398;-76
2021/12/23 05:52:09;;;;;;;9.95;4.03;;;;;;;-7.26;90.82;61268.25;5048022;28;20218;-75
2021/12/23 05:54:36;;;;;;;7.60;4.13;;;;;;;-7.21;90.94;61266.44;5052643;28;20232;-75
2021/12/23 05:57:03;;;;;;;6.05;4.18;;;;;;;-7.23;91.13;61266.84;5062898;28;20414;-77
2021/12/23 05:59:31;;;;;;;6.68;4.35;;;;;;;-7.22;91.03;61272.84;5062589;28;20233;-75
2021/12/23 06:01:59;;;;;;;5.43;3.65;;;;;;;-7.17;90.60;61267.50;5047904;28;20256;-75
2021/12/23 06:04:27;;;;;;;6.13;3.60;;;;;;;-7.22;90.66;61272.84;5048313;28;20225;-75
2021/12/23 06:06:54;;;;;;;7.15;3.33;;;;;;;-7.17;91.10;61277.41;5062942;28;20352;-76
2021/12/23 06:09:21;;;;;;;7.07;4.72;;;;;;;-7.17;91.49;61272.47;5062526;28;20265;-76
2021/12/23 06:11:48;;;;;;;13.70;6.45;;;;;;;-7.23;91.89;61263.91;5051925;28;20233;-75
2021/12/23 06:14:16;;;;;;;10.48;6.25;;;;;;;-7.22;92.12;61269.84;5046428;28;20206;-75
2021/12/23 06:16:43;;;;;;;12.57;7.10;;;;;;;-7.22;92.14;61269.84;5049138;28;20546;-75
2021/12/23 06:19:10;;;;;;;11.70;6.38;;;;;;;-7.14;91.27;61280.97;5055828;28;20208;-75
2021/12/23 06:21:38;;;;;;;8.18;6.47;;;;;;;-7.13;91.08;61279.50;5048569;28;20293;-75
2021/12/23 06:24:06;;;;;;;8.00;5.75;;;;;;;-7.12;91.15;61277.53;5053105;28;20217;-76
2021/12/23 06:26:33;;;;;;;12.60;6.90;;;;;;;-7.08;91.53;61278.63;5064852;28;20240;-75
2021/12/23 06:29:00;;;;;;;8.40;5.55;;;;;;;-7.03;91.68;61288.66;5064427;28;20212;-76
2021/12/23 06:31:28;;;;;;;5.45;3.50;;;;;;;-6.97;91.01;61302.69;5060727;28;20295;-75
2021/12/23 06:33:55;;;;;;;7.63;5.75;;;;;;;-6.90;90.75;61301.91;5053661;28;20294;-76
2021/12/23 06:36:22;;;;;;;14.15;7.68;;;;;;;-6.81;89.80;61308.56;5047664;28;20228;-75
2021/12/23 06:38:50;;;;;;;10.10;5.75;;;;;;;-6.76;89.69;61318.59;5047015;28;20292;-75
2021/12/23 06:41:18;;;;;;;8.00;4.38;;;;;;;-6.71;89.57;61319.25;5055847;28;20526;-75
2021/12/23 06:43:46;;;;;;;82.93;32.55;;;;;;;-6.65;89.81;61320.44;5057104;28;20229;-76
2021/12/23 06:46:13;;;;;;;19.15;8.82;;;;;;;-6.68;89.66;61322.31;5055182;28;20241;-76
2021/12/23 06:48:40;;;;;;;9.27;5.03;;;;;;;-6.63;90.68;61324.94;5050987;28;20205;-75
2021/12/23 06:51:07;;;;;;;5.88;4.40;;;;;;;-6.67;91.27;61325.28;5065919;28;20428;-75
2021/12/23 06:53:34;;;;;;;7.57;5.93;;;;;;;-6.58;92.27;61339.41;5066164;28;20300;-74
2021/12/23 06:56:02;;;;;;;8.25;4.88;;;;;;;-6.56;92.83;61332.06;5046807;28;20221;-75
2021/12/23 06:58:31;;;;;;;5.25;4.32;;;;;;;-6.59;93.40;61336.44;5061719;28;20274;-76
2021/12/23 07:00:58;;;;;;;8.60;4.95;;;;;;;-6.66;93.49;61324.34;5059681;28;20229;-76
2021/12/23 07:03:32;;;;;;;9.15;5.97;;;;;;;-6.65;93.94;61330.31;5065314;28;20205;-76
2021/12/23 07:06:05;;;;;;;10.63;7.10;;;;;;;-6.61;94.71;61331.91;5053253;28;20252;-77
2021/12/23 07:08:34;;;;;;;9.70;6.43;;;;;;;-6.51;95.01;61341.59;5047527;28;20201;-75
2021/12/23 07:11:04;;;;;;;15.88;7.95;;;;;;;-6.46;94.82;61349.16;5049383;28;20284;-76
2021/12/23 07:13:32;;;;;;;16.33;7.85;;;;;;;-6.09;94.71;61382.38;5054606;28;20216;-75
2021/12/23 07:16:01;;;;;;;8.70;6.82;;;;;;;-5.68;92.47;61428.59;5041919;28;20292;-75
2021/12/23 07:18:27;;;;;;;16.35;8.93;;;;;;;-5.53;89.59;61443.34;5058904;28;20209;-74
2021/12/23 07:20:54;;;;;;;13.13;8.13;;;;;;;-5.69;89.98;61422.09;5052091;28;20289;-74
2021/12/23 07:23:21;;;;;;;13.30;8.15;;;;;;;-5.68;90.44;61421.16;5050767;28;20244;-76
2021/12/23 07:25:48;;;;;;;12.10;8.15;;;;;;;-5.67;89.79;61429.59;5051038;28;20229;-75
2021/12/23 07:28:16;;;;;;;12.60;7.97;;;;;;;-5.68;88.81;61423.63;5051002;28;20205;-74
2021/12/23 07:30:43;;;;;;;13.60;9.05;;;;;;;-5.64;89.13;61432.66;5043372;28;20221;-76
2021/12/23 07:33:10;;;;;;;22.95;10.55;;;;;;;-5.51;89.88;61437.97;5046107;28;20259;-75
2021/12/23 07:35:37;;;;;;;14.80;9.88;;;;;;;-5.42;90.02;61442.19;5044895;28;20229;-74
2021/12/23 07:38:04;;;;;;;15.60;9.82;;;;;;;-5.50;90.64;61441.97;5056082;28;20497;-74
2021/12/23 07:40:31;;;;;;;19.13;11.10;;;;;;;-5.38;91.04;61451.72;5055865;28;20272;-75
2021/12/23 07:43:09;;;;;;;24.15;11.30;;;;;;;-5.41;90.40;61448.66;5056502;28;20213;-74
2021/12/23 07:45:39;;;;;;;16.70;10.32;;;;;;;-5.39;89.27;61452.66;5046969;28;20233;-75
2021/12/23 07:48:06;;;;;;;11.82;6.35;;;;;;;-5.32;87.26;61459.81;5047731;28;20252;-74
2021/12/23 07:50:32;;;;;;;11.88;6.65;;;;;;;-5.33;86.09;61458.78;5049090;28;20222;-75
2021/12/23 07:52:59;;;;;;;14.20;6.93;;;;;;;-5.14;85.61;61476.19;5064928;28;20514;-75
2021/12/23 07:55:26;;;;;;;12.38;7.07;;;;;;;-5.38;84.42;61458.63;5055634;28;20391;-74
2021/12/23 07:57:53;;;;;;;9.60;5.30;;;;;;;-5.24;84.69;61465.47;5059796;28;20436;-75
2021/12/23 08:00:21;;;;;;;9.15;5.45;;;;;;;-5.27;83.75;61464.91;5050762;28;20222;-75
2021/12/23 08:02:50;;;;;;;14.27;7.55;;;;;;;-5.16;84.38;61481.56;5059358;28;20415;-75
2021/12/23 08:05:17;;;;;;;16.50;8.40;;;;;;;-4.93;84.39;61500.06;5058188;28;20271;-75
2021/12/23 08:07:44;;;;;;;16.30;7.90;;;;;;;-4.84;84.41;61503.78;5056086;28;20205;-76
2021/12/23 08:12:52;;;;;;;10.90;6.75;;;;;;;-4.58;82.06;61532.25;5045836;28;20202;-75
2021/12/23 08:15:20;;;;;;;9.80;6.28;;;;;;;-4.40;80.82;61553.13;5042632;28;20232;-77
2021/12/23 08:17:47;;;;;;;13.05;6.70;;;;;;;-4.27;80.09;61563.88;5050391;28;20205;-75
2021/12/23 08:20:17;;;;;;;42.35;17.20;;;;;;;-4.44;79.47;61546.53;5047790;28;20206;-75
2021/12/23 08:22:44;;;;;;;12.98;7.72;;;;;;;-4.30;79.34;61560.81;5042369;28;20392;-76
2021/12/23 08:25:12;;;;;;;15.82;7.45;;;;;;;-4.18;79.57;61578.56;5048828;28;20410;-75
2021/12/23 08:27:39;;;;;;;18.77;7.90;;;;;;;-4.26;79.37;61570.38;5063500;28;20244;-74
2021/12/23 08:30:10;;;;;;;21.48;8.23;;;;;;;-4.45;79.95;61553.47;5041262;28;20202;-74
2021/12/23 08:32:39;;;;;;;13.32;7.70;;;;;;;-4.43;80.35;61548.06;5043958;28;20264;-75
2021/12/23 08:35:07;;;;;;;15.90;7.93;;;;;;;-4.40;80.42;61548.16;5043491;28;20420;-74
2021/12/23 08:37:36;;;;;;;17.58;7.78;;;;;;;-4.12;80.28;61579.69;5042214;28;20244;-75
2021/12/23 08:40:03;;;;;;;10.40;7.20;;;;;;;-4.07;79.40;61587.28;5047422;28;20445;-75
2021/12/23 08:42:30;;;;;;;16.73;7.70;;;;;;;-4.22;79.95;61573.97;5049954;28;20485;-75
2021/12/23 08:44:57;;;;;;;11.60;6.78;;;;;;;-4.52;80.32;61538.38;5044283;28;20241;-75
2021/12/23 08:47:24;;;;;;;12.88;6.93;;;;;;;-4.29;80.53;61569.81;5041597;28;20389;-75
2021/12/23 08:49:51;;;;;;;13.73;6.93;;;;;;;-4.24;80.10;61569.44;5040717;28;20262;-74
2021/12/23 08:52:18;;;;;;;13.07;7.25;;;;;;;-4.01;79.86;61593.41;5042302;28;20222;-75
2021/12/23 08:54:47;;;;;;;13.27;7.85;;;;;;;-3.85;79.54;61609.75;5039116;28;20206;-75
2021/12/23 08:57:13;;;;;;;12.90;6.68;;;;;;;-3.56;78.04;61644.34;5039883;28;20226;-75
2021/12/23 08:59:40;;;;;;;12.55;8.10;;;;;;;-3.72;76.90;61625.00;5032356;28;20205;-75
2021/12/23 09:02:08;;;;;;;17.00;8.88;;;;;;;-3.68;77.10;61632.09;5042681;28;20218;-76
2021/12/23 09:04:38;;;;;;;13.50;8.18;;;;;;;-3.65;77.71;61635.16;5043617;28;20238;-75
2021/12/23 09:07:06;;;;;;;13.38;7.63;;;;;;;-3.39;77.67;61653.72;5043483;28;20238;-76
2021/12/23 09:09:34;;;;;;;17.92;8.65;;;;;;;-3.43;74.65;61651.63;5045320;28;20202;-75
2021/12/23 09:12:04;;;;;;;12.25;7.38;;;;;;;-3.49;74.82;61648.47;5028841;28;20400;-76
2021/12/23 09:14:33;;;;;;;10.48;6.65;;;;;;;-3.56;74.87;61638.84;5024185;28;20187;-74
2021/12/23 09:17:02;;;;;;;15.60;6.45;;;;;;;-3.62;74.55;61637.69;5043487;28;20450;-75
2021/12/23 09:19:29;;;;;;;12.52;6.90;;;;;;;-3.48;73.98;61644.53;5043305;28;20399;-77
2021/12/23 09:21:56;;;;;;;12.98;7.13;;;;;;;-3.62;73.91;61635.19;5044399;28;20241;-76
2021/12/23 09:24:23;;;;;;;11.65;7.10;;;;;;;-3.37;74.04;61660.75;5046370;28;20302;-75
2021/12/23 09:26:56;;;;;;;19.55;7.75;;;;;;;-3.25;73.84;61670.00;5041802;28;20234;-77
2021/12/23 09:34:51;;;;;;;14.60;6.50;;;;;;;-3.19;72.32;61681.09;5042990;28;20196;-76
2021/12/23 09:37:19;;;;;;;14.82;7.28;;;;;;;-3.07;72.74;61688.88;5045774;28;20222;-77
2021/12/23 09:39:52;;;;;;;15.32;7.53;;;;;;;-3.02;71.59;61694.00;5045674;28;20198;-77
2021/12/23 09:42:20;;;;;;;16.30;7.97;;;;;;;-3.18;71.55;61682.13;5045465;28;20219;-76
2021/12/23 09:44:49;;;;;;;11.30;7.28;;;;;;;-3.12;71.38;61683.78;5045881;28;20257;-77
2021/12/23 09:47:17;;;;;;;9.90;7.40;;;;;;;-2.84;70.97;61704.91;5051246;28;20222;-78
2021/12/23 09:49:45;;;;;;;11.10;7.07;;;;;;;-2.93;69.61;61705.69;5049524;28;20541;-76
2021/12/23 09:52:13;;;;;;;11.95;7.05;;;;;;;-2.90;70.13;61701.28;5047384;28;20221;-79
2021/12/23 09:54:44;;;;;;;12.57;7.20;;;;;;;-2.70;69.60;61721.19;5050490;28;20189;-77
2021/12/23 09:57:14;;;;;;;16.35;8.55;;;;;;;-2.74;69.30;61720.13;5049119;28;20261;-77
2021/12/23 09:59:41;;;;;;;18.27;8.70;;;;;;;-2.58;68.83;61741.47;5049183;28;20578;-76
2021/12/23 10:02:10;;;;;;;9.10;6.93;;;;;;;-2.33;69.40;61762.03;5042565;28;20239;-79
2021/12/23 10:04:37;;;;;;;13.55;8.88;;;;;;;-2.31;68.42;61760.56;5044927;28;20460;-77
2021/12/23 10:07:04;;;;;;;13.48;9.60;;;;;;;-2.33;69.24;61766.00;5045974;28;20229;-78
2021/12/23 10:09:43;;;;;;;13.48;8.55;;;;;;;-2.26;69.37;61770.66;5047636;28;20249;-78
2021/12/23 10:31:44;;;;;;;16.48;9.90;;;;;;;-2.35;69.70;61759.97;5045602;28;20249;-75
2021/12/23 10:37:14;;;;;;;15.13;10.88;;;;;;;-2.08;70.77;61787.06;5046327;28;20229;-77
2021/12/23 10:39:43;;;;;;;19.13;11.82;;;;;;;-2.02;69.89;61793.19;5029865;28;20215;-76
2021/12/23 10:42:11;;;;;;;18.95;10.18;;;;;;;-1.90;70.32;61807.47;5031782;28;20219;-76
2021/12/23 10:44:39;;;;;;;22.92;10.98;;;;;;;-1.66;69.57;61832.03;5032142;28;20232;-76
2021/12/23 10:47:07;;;;;;;22.42;10.90;;;;;;;-1.49;68.54;61846.91;5044971;28;20605;-76
2021/12/23 10:49:42;;;;;;;19.30;10.88;;;;;;;-1.33;67.40;61866.28;5044766;28;20391;-76
2021/12/23 10:52:16;;;;;;;18.48;10.27;;;;;;;-1.31;66.75;61868.34;5044430;28;20426;-77
2021/12/23 11:00:22;;;;;;;18.88;10.80;;;;;;;-1.42;65.34;61854.09;5030339;28;20229;-75
2021/12/23 11:03:00;;;;;;;18.05;10.13;;;;;;;-1.22;65.60;61874.53;5038634;28;20201;-76
2021/12/23 11:05:34;;;;;;;17.85;11.50;;;;;;;-1.27;65.12;61869.94;5047556;28;20257;-75
2021/12/23 11:08:15;;;;;;;15.70;10.30;;;;;;;-1.12;66.31;61891.78;5044448;28;20198;-77
2021/12/23 11:27:47;;;;;;;21.73;10.63;;;;;;;-0.96;62.53;61903.66;5048053;28;20224;-76
2021/12/23 11:38:32;;;;;;;14.27;8.27;;;;;;;-0.85;60.02;61914.94;5049881;28;20197;-77
2021/12/23 11:41:05;;;;;;;14.80;9.02;;;;;;;-0.64;59.89;61933.91;5044117;28;20221;-77
2021/12/23 11:43:50;;;;;;;13.35;7.65;;;;;;;-0.57;60.26;61945.59;5048244;28;20186;-76
2021/12/23 11:46:28;;;;;;;15.55;8.55;;;;;;;-0.50;59.98;61948.25;5054317;28;20230;-76
2021/12/23 11:48:57;;;;;;;13.13;8.95;;;;;;;-0.36;59.87;61962.59;5065174;28;20201;-76
2021/12/23 11:51:32;;;;;;;17.73;8.57;;;;;;;-0.47;58.82;61948.31;5045988;28;20225;-76
2021/12/23 11:54:03;;;;;;;15.10;8.73;;;;;;;-0.57;58.99;61938.09;5044646;28;20197;-75
2021/12/23 11:56:31;;;;;;;20.95;8.82;;;;;;;-0.43;58.99;61955.44;5043402;28;20483;-77
2021/12/23 11:59:02;;;;;;;11.50;7.85;;;;;;;-0.43;58.64;61957.44;5045063;28;20193;-76
2021/12/23 12:01:32;;;;;;;14.35;7.40;;;;;;;-0.39;57.94;61961.50;5047307;28;20311;-77
2021/12/23 12:04:01;;;;;;;13.18;8.18;;;;;;;-0.45;57.48;61955.38;5047420;28;20197;-75
2021/12/23 12:06:31;;;;;;;14.65;7.63;;;;;;;-0.49;58.43;61946.78;5045262;28;20242;-76
2021/12/23 12:09:14;;;;;;;13.20;7.43;;;;;;;-0.41;58.39;61962.47;5044292;28;20207;-77
2021/12/23 12:11:41;;;;;;;14.77;8.25;;;;;;;-0.29;58.43;61972.28;5042536;28;20264;-76
2021/12/23 12:14:34;;;;;;;16.38;8.82;;;;;;;-0.29;58.34;61969.25;5044737;28;20430;-76
2021/12/23 12:17:36;;;;;;;23.27;8.55;;;;;;;-0.43;59.14;61954.94;5048112;28;20232;-77
2021/12/23 12:20:09;;;;;;;10.05;7.07;;;;;;;-0.36;58.87;61960.09;5095785;22;20241;-76
2021/12/23 12:22:59;;;;;;;17.13;8.20;;;;;;;-0.25;57.99;61973.88;5018567;28;20256;-76
2021/12/23 12:26:02;;;;;;;21.33;7.75;;;;;;;-0.25;57.65;61973.34;5023041;28;20362;-76
2021/12/23 12:28:39;;;;;;;17.83;8.10;;;;;;;-0.31;57.51;61964.72;5004935;28;20203;-75
2021/12/23 12:31:09;;;;;;;10.90;8.13;;;;;;;-0.55;58.35;61942.63;5014863;28;20226;-77
2021/12/23 12:34:02;;;;;;;16.67;8.35;;;;;;;-0.43;58.45;61954.94;5021135;28;20195;-78
2021/12/23 12:36:31;;;;;;;15.32;8.18;;;;;;;-0.35;58.19;61966.13;5029726;28;20245;-76
2021/12/23 12:39:17;;;;;;;11.02;7.40;;;;;;;-0.22;57.49;61973.94;5029157;28;20193;-75
2021/12/23 12:41:46;;;;;;;14.35;7.53;;;;;;;-0.15;57.32;61983.59;5046428;28;20233;-77